createdAt,value
2023-01-01T00:00:41.070Z,119.88
2023-01-01T00:03:08.079Z,157.75
2023-01-01T00:05:37.787Z,166.05
2023-01-01T00:08:05.493Z,143.52
2023-01-01T00:10:33.024Z,152.25
2023-01-01T00:13:00.443Z,145.52
2023-01-01T00:15:28.259Z,140.65
2023-01-01T00:17:55.507Z,145.27
2023-01-01T00:20:22.684Z,151.55
2023-01-01T00:22:57.039Z,147.75
2023-01-01T00:25:24.995Z,146.13
2023-01-01T00:27:52.079Z,135.13
2023-01-01T00:30:19.329Z,136.93
2023-01-01T00:32:54.454Z,143.18
2023-01-01T00:35:26.652Z,135.80
2023-01-01T00:37:55.367Z,132.35
2023-01-01T00:40:22.758Z,117.75
2023-01-01T00:42:49.762Z,111.63
2023-01-01T00:45:21.507Z,115.68
2023-01-01T00:47:50.700Z,105.50
2023-01-01T00:50:17.866Z,110.80
2023-01-01T00:52:44.805Z,111.20
2023-01-01T00:55:12.117Z,107.15
2023-01-01T00:57:39.152Z,104.50
2023-01-01T01:00:07.320Z,104.57
2023-01-01T01:02:34.574Z,103.35
2023-01-01T01:05:03.608Z,103.45
2023-01-01T01:07:36.349Z,107.97
2023-01-01T01:10:03.786Z,107.45
2023-01-01T01:12:30.819Z,114.28
2023-01-01T01:14:57.756Z,113.90
2023-01-01T01:17:24.702Z,116.68
2023-01-01T01:19:51.771Z,116.97
2023-01-01T01:22:21.586Z,120.00
2023-01-01T01:24:53.213Z,123.93
2023-01-01T01:27:20.219Z,121.95
2023-01-01T01:29:47.335Z,121.13
2023-01-01T01:32:14.686Z,121.25
2023-01-01T01:34:41.708Z,123.07
2023-01-01T01:37:08.776Z,126.72
2023-01-01T01:39:36.233Z,126.82
2023-01-01T01:42:03.817Z,124.63
2023-01-01T01:44:48.754Z,126.32
2023-01-01T01:47:40.238Z,126.82
2023-01-01T01:50:44.996Z,126.65
2023-01-01T01:53:28.674Z,124.90
2023-01-01T01:56:01.905Z,128.95
2023-01-01T01:58:31.000Z,127.47
2023-01-01T02:00:58.395Z,129.45
2023-01-01T02:03:47.785Z,124.18
2023-01-01T02:06:15.392Z,125.85
2023-01-01T02:08:42.342Z,120.60
2023-01-01T02:11:09.311Z,120.10
2023-01-01T02:13:39.181Z,125.10
2023-01-01T02:16:20.879Z,127.90
2023-01-01T02:19:06.815Z,124.38
2023-01-01T02:21:42.227Z,127.82
2023-01-01T02:24:48.394Z,124.30
2023-01-01T02:27:20.959Z,122.83
2023-01-01T02:29:55.505Z,122.55
2023-01-01T02:32:35.372Z,117.72
2023-01-01T02:35:28.874Z,121.13
2023-01-01T02:38:00.864Z,118.72
2023-01-01T02:40:28.763Z,116.45
2023-01-01T02:42:57.300Z,114.90
2023-01-01T02:45:24.408Z,121.20
2023-01-01T02:47:51.336Z,117.82
2023-01-01T02:50:25.703Z,117.28
2023-01-01T02:53:10.539Z,117.72
2023-01-01T02:55:46.768Z,119.93
2023-01-01T02:58:39.113Z,122.65
2023-01-01T03:01:19.721Z,128.27
2023-01-01T03:04:25.636Z,132.43
2023-01-01T03:07:16.522Z,134.27
2023-01-01T03:09:53.593Z,138.52
2023-01-01T03:12:43.182Z,148.80
2023-01-01T03:15:31.053Z,149.65
2023-01-01T03:18:08.382Z,153.65
2023-01-01T03:20:42.222Z,152.25
2023-01-01T03:23:15.148Z,152.02
2023-01-01T03:25:48.815Z,147.45
2023-01-01T03:28:23.904Z,143.20
2023-01-01T03:30:53.033Z,136.57
2023-01-01T03:33:35.602Z,126.25
2023-01-01T03:36:07.697Z,125.07
2023-01-01T03:38:43.318Z,111.38
2023-01-01T03:41:27.709Z,108.47
2023-01-01T03:44:03.197Z,107.90
2023-01-01T03:46:33.417Z,103.57
2023-01-01T03:49:04.058Z,94.13
2023-01-01T03:51:56.460Z,98.38
2023-01-01T03:54:59.107Z,94.70
2023-01-01T03:57:51.564Z,95.10
2023-01-01T04:00:24.583Z,88.45
2023-01-01T04:03:06.020Z,89.55
2023-01-01T04:05:37.491Z,86.85
2023-01-01T04:08:05.869Z,90.97
2023-01-01T04:10:37.126Z,90.05
2023-01-01T04:13:06.386Z,87.85
2023-01-01T04:15:35.920Z,93.47
2023-01-01T04:18:03.434Z,90.43
2023-01-01T04:20:30.776Z,93.25
2023-01-01T04:22:59.999Z,96.22
2023-01-01T04:25:27.957Z,97.22
2023-01-01T04:27:58.415Z,94.47
2023-01-01T04:30:26.847Z,94.15
2023-01-01T04:32:55.330Z,98.13
2023-01-01T04:35:22.276Z,97.15
2023-01-01T04:37:49.283Z,95.97
2023-01-01T04:40:16.371Z,95.22
2023-01-01T04:42:43.524Z,95.05
2023-01-01T04:45:14.983Z,94.85
2023-01-01T04:47:42.542Z,92.13
2023-01-01T04:50:10.085Z,91.43
2023-01-01T04:52:37.393Z,98.43
2023-01-01T04:55:05.128Z,97.90
2023-01-01T04:57:32.326Z,94.00
2023-01-01T04:59:59.343Z,93.95
2023-01-01T05:02:26.987Z,95.15
2023-01-01T05:04:54.186Z,97.28
2023-01-01T05:07:21.225Z,95.28
2023-01-01T05:09:48.191Z,94.28
2023-01-01T05:12:15.225Z,96.50
2023-01-01T05:14:42.252Z,95.95
2023-01-01T05:17:09.262Z,91.35
2023-01-01T05:19:36.346Z,94.45
2023-01-01T05:22:10.211Z,97.75
2023-01-01T05:24:37.775Z,93.85
2023-01-01T05:27:04.857Z,93.55
2023-01-01T05:29:31.819Z,94.63
2023-01-01T05:31:58.868Z,89.18
2023-01-01T05:34:27.455Z,93.03
2023-01-01T05:36:54.462Z,98.88
2023-01-01T05:39:21.409Z,96.03
2023-01-01T05:41:48.384Z,97.53
2023-01-01T05:44:16.630Z,97.78
2023-01-01T05:47:02.550Z,95.22
2023-01-01T05:49:29.475Z,95.18
2023-01-01T05:51:56.501Z,92.55
2023-01-01T05:54:23.505Z,93.65
2023-01-01T05:56:50.461Z,91.38
2023-01-01T05:59:17.492Z,91.70
2023-01-01T06:01:46.129Z,87.75
2023-01-01T06:04:13.735Z,88.82
2023-01-01T06:06:40.864Z,85.65
2023-01-01T06:09:07.839Z,84.82
2023-01-01T06:11:34.774Z,82.13
2023-01-01T06:14:02.029Z,82.32
2023-01-01T06:16:30.411Z,80.47
2023-01-01T06:18:57.555Z,78.55
2023-01-01T06:21:27.499Z,77.10
2023-01-01T06:23:56.795Z,73.82
2023-01-01T06:26:27.426Z,75.57
2023-01-01T06:28:55.733Z,72.70
2023-01-01T06:31:23.263Z,67.57
2023-01-01T06:33:51.044Z,70.63
2023-01-01T06:36:20.634Z,64.03
2023-01-01T06:38:50.444Z,60.55
2023-01-01T06:41:20.060Z,64.45
2023-01-01T06:43:47.829Z,61.83
2023-01-01T06:46:22.106Z,62.25
2023-01-01T06:49:00.564Z,60.70
2023-01-01T06:51:30.207Z,59.65
2023-01-01T06:54:02.095Z,59.15
2023-01-01T06:56:29.916Z,58.85
2023-01-01T06:58:57.375Z,61.15
2023-01-01T07:01:27.359Z,56.50
2023-01-01T07:03:59.720Z,52.30
2023-01-01T07:06:28.573Z,53.65
2023-01-01T07:08:55.583Z,51.83
2023-01-01T07:11:23.211Z,51.20
2023-01-01T07:13:50.238Z,49.40
2023-01-01T07:16:17.614Z,46.85
2023-01-01T07:18:46.000Z,47.30
2023-01-01T07:21:37.917Z,44.50
2023-01-01T07:24:06.340Z,43.53
2023-01-01T07:26:34.185Z,45.53
2023-01-01T07:29:08.923Z,43.08
2023-01-01T07:31:41.113Z,39.87
2023-01-01T07:34:13.221Z,38.47
2023-01-01T07:36:41.255Z,37.53
2023-01-01T07:39:08.530Z,37.83
2023-01-01T07:41:35.576Z,36.63
2023-01-01T07:44:03.695Z,36.47
2023-01-01T07:46:30.732Z,35.45
2023-01-01T07:48:58.605Z,33.92
2023-01-01T07:51:25.727Z,33.67
2023-01-01T07:53:52.734Z,33.53
2023-01-01T07:56:19.849Z,35.03
2023-01-01T07:58:46.897Z,33.30
2023-01-01T08:01:14.979Z,35.80
2023-01-01T08:03:42.461Z,34.15
2023-01-01T08:06:13.487Z,34.28
2023-01-01T08:08:41.291Z,35.22
2023-01-01T08:11:08.480Z,35.38
2023-01-01T08:13:35.628Z,34.47
2023-01-01T08:16:03.056Z,33.42
2023-01-01T08:18:30.214Z,34.97
2023-01-01T08:20:57.497Z,35.42
2023-01-01T08:23:24.628Z,34.85
2023-01-01T08:25:51.772Z,37.08
2023-01-01T08:28:18.754Z,37.35
2023-01-01T08:30:45.837Z,37.25
2023-01-01T08:33:13.323Z,35.70
2023-01-01T08:35:42.721Z,37.67
2023-01-01T08:38:12.041Z,37.53
2023-01-01T08:40:39.440Z,38.35
2023-01-01T08:43:06.605Z,38.13
2023-01-01T08:45:33.663Z,38.92
2023-01-01T08:48:00.727Z,39.25
2023-01-01T08:50:27.778Z,39.58
2023-01-01T08:52:55.497Z,39.33
2023-01-01T08:55:22.500Z,38.70
2023-01-01T08:57:49.518Z,39.33
2023-01-01T09:00:17.231Z,39.00
2023-01-01T09:02:44.314Z,36.33
2023-01-01T09:05:11.295Z,35.40
2023-01-01T09:07:38.514Z,38.42
2023-01-01T09:10:06.201Z,37.33
2023-01-01T09:12:33.210Z,35.50
2023-01-01T09:15:00.232Z,34.25
2023-01-01T09:17:27.247Z,34.80
2023-01-01T09:19:55.766Z,33.10
2023-01-01T09:22:22.822Z,34.85
2023-01-01T09:24:49.765Z,34.30
2023-01-01T09:27:16.929Z,32.15
2023-01-01T09:29:43.835Z,33.33
2023-01-01T09:32:10.883Z,32.92
2023-01-01T09:34:37.812Z,32.00
2023-01-01T09:37:04.798Z,32.28
2023-01-01T09:39:31.766Z,32.15
2023-01-01T09:42:24.870Z,31.70
2023-01-01T09:45:13.192Z,29.58
2023-01-01T09:47:44.136Z,30.40
2023-01-01T09:50:21.487Z,28.40
2023-01-01T09:52:48.404Z,27.20
2023-01-01T09:55:38.434Z,27.92
2023-01-01T09:58:05.416Z,32.80
2023-01-01T10:00:34.758Z,30.67
2023-01-01T10:03:16.458Z,29.17
2023-01-01T10:06:27.240Z,28.50
2023-01-01T10:09:22.311Z,29.60
2023-01-01T10:12:17.703Z,28.70
2023-01-01T10:14:51.685Z,29.85
2023-01-01T10:17:40.076Z,30.15
2023-01-01T10:20:18.503Z,28.92
2023-01-01T10:22:48.664Z,28.45
2023-01-01T10:25:19.825Z,29.67
2023-01-01T10:28:05.614Z,29.40
2023-01-01T10:30:32.876Z,29.27
2023-01-01T10:33:00.405Z,29.70
2023-01-01T10:35:45.665Z,29.73
2023-01-01T10:38:23.561Z,30.05
2023-01-01T10:40:53.359Z,31.85
2023-01-01T10:43:20.256Z,33.42
2023-01-01T10:45:55.870Z,31.77
2023-01-01T10:48:28.684Z,31.10
2023-01-01T10:50:56.807Z,29.30
2023-01-01T10:53:28.528Z,30.33
2023-01-01T10:56:10.165Z,28.73
2023-01-01T10:58:49.085Z,26.63
2023-01-01T11:01:18.921Z,27.92
2023-01-01T11:03:54.080Z,28.27
2023-01-01T11:06:26.530Z,28.45
2023-01-01T11:08:56.235Z,27.23
2023-01-01T11:11:30.719Z,26.35
2023-01-01T11:14:04.584Z,28.95
2023-01-01T11:16:32.522Z,27.17
2023-01-01T11:19:07.800Z,28.88
2023-01-01T11:21:35.701Z,28.13
2023-01-01T11:24:39.444Z,27.15
2023-01-01T11:27:12.316Z,28.90
2023-01-01T11:29:39.494Z,27.95
2023-01-01T11:32:08.188Z,29.35
2023-01-01T11:34:38.123Z,28.55
2023-01-01T11:37:15.353Z,28.05
2023-01-01T11:39:44.897Z,26.40
2023-01-01T11:42:25.155Z,26.90
2023-01-01T11:45:06.275Z,25.50
2023-01-01T11:47:39.573Z,27.20
2023-01-01T11:50:31.320Z,27.15
2023-01-01T11:53:16.509Z,26.70
2023-01-01T11:55:48.814Z,25.27
2023-01-01T11:58:37.236Z,25.15
2023-01-01T12:01:19.369Z,24.23
2023-01-01T12:04:06.644Z,25.27
2023-01-01T12:07:02.326Z,26.25
2023-01-01T12:09:46.298Z,25.30
2023-01-01T12:12:26.396Z,26.38
2023-01-01T12:15:24.292Z,25.83
2023-01-01T12:18:00.254Z,25.90
2023-01-01T12:20:37.359Z,24.05
2023-01-01T12:23:04.848Z,24.05
2023-01-01T12:25:44.423Z,23.58
2023-01-01T12:28:42.751Z,24.00
2023-01-01T12:31:28.192Z,24.98
2023-01-01T12:34:13.026Z,25.40
2023-01-01T12:36:46.187Z,24.77
2023-01-01T12:39:50.607Z,25.13
2023-01-01T12:42:30.095Z,24.52
2023-01-01T12:45:28.723Z,26.48
2023-01-01T12:48:21.884Z,26.17
2023-01-01T12:51:10.233Z,27.63
2023-01-01T12:53:59.201Z,25.65
2023-01-01T12:56:42.854Z,27.60
2023-01-01T12:59:25.060Z,26.08
2023-01-01T13:01:56.355Z,27.40
2023-01-01T13:04:23.516Z,26.95
2023-01-01T13:07:03.452Z,27.50
2023-01-01T13:09:35.432Z,27.55
2023-01-01T13:12:06.190Z,27.63
2023-01-01T13:14:40.870Z,28.02
2023-01-01T13:17:24.369Z,29.08
2023-01-01T13:20:11.329Z,29.02
2023-01-01T13:22:41.990Z,28.60
2023-01-01T13:25:12.038Z,30.10
2023-01-01T13:27:57.962Z,30.10
2023-01-01T13:30:41.464Z,31.67
2023-01-01T13:33:26.067Z,29.23
2023-01-01T13:36:09.301Z,30.13
2023-01-01T13:38:56.848Z,30.77
2023-01-01T13:41:29.718Z,29.70
2023-01-01T13:43:59.572Z,30.88
2023-01-01T13:46:58.780Z,30.70
2023-01-01T13:49:40.801Z,30.80
2023-01-01T13:52:19.923Z,27.92
2023-01-01T13:55:24.121Z,27.48
2023-01-01T13:57:57.239Z,26.77
2023-01-01T14:00:33.895Z,26.65
2023-01-01T14:03:06.932Z,25.10
2023-01-01T14:05:43.480Z,25.80
2023-01-01T14:08:30.441Z,26.40
2023-01-01T14:11:00.705Z,24.42
2023-01-01T14:13:39.149Z,26.77
2023-01-01T14:16:13.754Z,26.25
2023-01-01T14:18:47.432Z,25.48
2023-01-01T14:21:23.467Z,25.55
2023-01-01T14:23:55.057Z,23.98
2023-01-01T14:26:26.069Z,25.80
2023-01-01T14:29:02.312Z,25.83
2023-01-01T14:31:31.606Z,25.67
2023-01-01T14:33:59.031Z,27.13
2023-01-01T14:36:29.499Z,26.02
2023-01-01T14:39:00.627Z,25.27
2023-01-01T14:41:36.261Z,25.20
2023-01-01T14:44:10.268Z,25.55
2023-01-01T14:46:48.509Z,25.48
2023-01-01T14:49:37.616Z,26.25
2023-01-01T14:52:15.645Z,24.48
2023-01-01T14:54:45.648Z,24.50
2023-01-01T14:57:23.602Z,24.83
2023-01-01T14:59:56.544Z,24.67
2023-01-01T15:02:29.219Z,23.85
2023-01-01T15:05:14.945Z,25.88
2023-01-01T15:07:41.899Z,23.45
2023-01-01T15:10:13.060Z,25.92
2023-01-01T15:12:42.174Z,25.73
2023-01-01T15:15:36.015Z,24.02
2023-01-01T15:18:03.066Z,24.08
2023-01-01T15:20:30.939Z,23.08
2023-01-01T15:22:58.082Z,23.65
2023-01-01T15:25:25.341Z,22.55
2023-01-01T15:27:54.928Z,24.05
2023-01-01T15:30:32.249Z,24.20
2023-01-01T15:33:13.433Z,24.30
2023-01-01T15:35:40.772Z,23.05
2023-01-01T15:38:17.437Z,24.40
2023-01-01T15:40:51.043Z,24.13
2023-01-01T15:43:26.070Z,22.52
2023-01-01T15:46:00.327Z,23.20
2023-01-01T15:48:35.097Z,23.23
2023-01-01T15:51:07.010Z,26.00
2023-01-01T15:54:04.839Z,22.85
2023-01-01T15:56:39.004Z,23.98
2023-01-01T15:59:19.371Z,22.50
2023-01-01T16:01:46.675Z,25.88
2023-01-01T16:04:13.704Z,22.40
2023-01-01T16:06:53.030Z,24.00
2023-01-01T16:09:21.764Z,23.00
2023-01-01T16:11:53.673Z,21.55
2023-01-01T16:14:20.883Z,21.48
2023-01-01T16:16:54.958Z,21.88
2023-01-01T16:19:23.051Z,22.02
2023-01-01T16:21:50.028Z,21.20
2023-01-01T16:24:19.000Z,21.13
2023-01-01T16:26:47.274Z,21.80
2023-01-01T16:29:14.767Z,21.98
2023-01-01T16:31:42.993Z,23.77
2023-01-01T16:34:16.199Z,23.50
2023-01-01T16:36:44.239Z,22.90
2023-01-01T16:39:11.719Z,21.00
2023-01-01T16:41:43.671Z,21.58
2023-01-01T16:44:14.741Z,22.08
2023-01-01T16:46:42.107Z,23.17
2023-01-01T16:49:09.154Z,23.63
2023-01-01T16:51:40.604Z,23.17
2023-01-01T16:54:10.104Z,22.02
2023-01-01T16:56:37.550Z,21.55
2023-01-01T16:59:04.538Z,23.15
2023-01-01T17:01:32.037Z,23.10
2023-01-01T17:04:00.407Z,23.98
2023-01-01T17:06:27.789Z,23.83
2023-01-01T17:08:54.974Z,22.35
2023-01-01T17:11:24.767Z,23.02
2023-01-01T17:13:51.822Z,21.85
2023-01-01T17:16:25.924Z,22.52
2023-01-01T17:19:14.564Z,23.25
2023-01-01T17:21:42.878Z,21.50
2023-01-01T17:24:10.340Z,23.30
2023-01-01T17:26:37.336Z,22.77
2023-01-01T17:29:05.102Z,21.95
2023-01-01T17:31:32.151Z,22.83
2023-01-01T17:33:59.334Z,23.13
2023-01-01T17:36:29.751Z,21.45
2023-01-01T17:38:57.232Z,23.58
2023-01-01T17:41:24.349Z,22.33
2023-01-01T17:43:52.960Z,23.38
2023-01-01T17:46:22.265Z,23.27
2023-01-01T17:48:49.766Z,23.88
2023-01-01T17:51:17.822Z,23.85
2023-01-01T17:53:45.644Z,23.20
2023-01-01T17:56:14.953Z,23.95
2023-01-01T17:58:43.757Z,22.67
2023-01-01T18:01:10.979Z,22.77
2023-01-01T18:03:39.969Z,22.75
2023-01-01T18:06:08.139Z,23.48
2023-01-01T18:08:35.257Z,22.15
2023-01-01T18:11:02.340Z,22.65
2023-01-01T18:13:29.698Z,22.67
2023-01-01T18:16:01.226Z,23.45
2023-01-01T18:18:30.778Z,24.45
2023-01-01T18:21:06.148Z,25.13
2023-01-01T18:23:39.719Z,23.23
2023-01-01T18:26:09.685Z,22.85
2023-01-01T18:28:36.735Z,22.55
2023-01-01T18:31:09.207Z,21.52
2023-01-01T18:33:36.291Z,22.90
2023-01-01T18:36:12.373Z,22.33
2023-01-01T18:38:43.736Z,22.70
2023-01-01T18:41:28.133Z,23.05
2023-01-01T18:43:55.882Z,23.05
2023-01-01T18:46:23.505Z,22.38
2023-01-01T18:48:55.510Z,22.35
2023-01-01T18:51:26.173Z,20.98
2023-01-01T18:53:58.317Z,20.45
2023-01-01T18:56:25.905Z,21.10
2023-01-01T18:58:55.333Z,22.80
2023-01-01T19:01:23.618Z,21.90
2023-01-01T19:03:54.216Z,19.85
2023-01-01T19:06:31.291Z,21.42
2023-01-01T19:09:18.676Z,21.42
2023-01-01T19:11:51.669Z,22.00
2023-01-01T19:14:18.632Z,21.02
2023-01-01T19:16:48.139Z,20.92
2023-01-01T19:19:21.079Z,21.55
2023-01-01T19:21:52.150Z,20.38
2023-01-01T19:24:30.319Z,19.95
2023-01-01T19:27:06.897Z,21.27
2023-01-01T19:29:39.942Z,19.35
2023-01-01T19:32:07.230Z,20.63
2023-01-01T19:34:35.890Z,22.63
2023-01-01T19:37:03.273Z,21.77
2023-01-01T19:39:31.612Z,22.00
2023-01-01T19:42:03.844Z,21.50
2023-01-01T19:44:31.748Z,21.23
2023-01-01T19:47:00.523Z,21.40
2023-01-01T19:49:28.134Z,21.23
2023-01-01T19:51:55.960Z,20.38
2023-01-01T19:54:23.009Z,21.92
2023-01-01T19:56:50.346Z,20.75
2023-01-01T19:59:18.156Z,21.40
2023-01-01T20:01:45.527Z,22.27
2023-01-01T20:04:12.715Z,21.92
2023-01-01T20:06:40.104Z,20.92
2023-01-01T20:09:07.360Z,20.90
2023-01-01T20:11:36.029Z,21.08
2023-01-01T20:14:03.789Z,22.00
2023-01-01T20:16:30.774Z,21.00
2023-01-01T20:18:57.698Z,20.95
2023-01-01T20:21:43.310Z,20.45
2023-01-01T20:24:11.008Z,21.50
2023-01-01T20:26:37.962Z,21.52
2023-01-01T20:29:20.217Z,19.58
2023-01-01T20:31:49.100Z,21.27
2023-01-01T20:34:16.480Z,20.38
2023-01-01T20:37:04.798Z,18.95
2023-01-01T20:39:32.029Z,20.02
2023-01-01T20:41:59.194Z,18.23
2023-01-01T20:44:26.594Z,19.23
2023-01-01T20:46:54.270Z,18.67
2023-01-01T20:49:21.792Z,17.67
2023-01-01T20:51:53.990Z,16.67
2023-01-01T20:54:22.502Z,17.98
2023-01-01T20:56:49.781Z,17.60
2023-01-01T20:59:35.721Z,17.65
2023-01-01T21:02:08.222Z,17.77
2023-01-01T21:04:40.068Z,17.38
2023-01-01T21:07:12.038Z,15.05
2023-01-01T21:09:40.395Z,16.25
2023-01-01T21:12:08.717Z,17.73
2023-01-01T21:14:35.784Z,16.05
2023-01-01T21:17:18.740Z,17.10
2023-01-01T21:19:46.002Z,17.52
2023-01-01T21:22:13.869Z,16.70
2023-01-01T21:24:40.990Z,17.52
2023-01-01T21:27:07.917Z,16.70
2023-01-01T21:29:35.473Z,17.08
2023-01-01T21:32:26.807Z,17.67
2023-01-01T21:34:55.332Z,17.95
2023-01-01T21:37:52.202Z,17.75
2023-01-01T21:40:37.396Z,16.77
2023-01-01T21:43:54.398Z,17.65
2023-01-01T21:46:30.214Z,17.17
2023-01-01T21:51:30.384Z,17.00
2023-01-01T21:54:14.629Z,17.63
2023-01-01T21:56:43.583Z,16.60
2023-01-01T21:59:27.140Z,17.75
2023-01-01T22:02:05.761Z,16.67
2023-01-01T22:04:49.490Z,16.35
2023-01-01T22:10:25.403Z,18.25
2023-01-01T22:13:00.448Z,17.13
2023-01-01T22:15:45.869Z,21.23
2023-01-01T22:18:18.882Z,18.27
2023-01-01T22:20:46.985Z,17.85
2023-01-01T22:23:19.637Z,18.13
2023-01-01T22:25:47.563Z,17.48
2023-01-01T22:28:23.582Z,17.95
2023-01-01T22:33:43.123Z,17.58
2023-01-01T22:36:21.940Z,16.45
2023-01-01T22:38:49.195Z,17.80
2023-01-01T22:41:16.176Z,16.88
2023-01-01T22:43:45.559Z,17.73
2023-01-01T22:46:26.373Z,17.83
2023-01-01T22:48:58.349Z,17.13
2023-01-01T22:51:28.909Z,16.15
2023-01-01T22:53:55.865Z,17.65
2023-01-01T22:56:22.831Z,16.23
2023-01-01T22:58:56.502Z,16.83
2023-01-01T23:01:24.213Z,17.13
2023-01-01T23:03:51.443Z,17.52
2023-01-01T23:06:19.434Z,17.75
2023-01-01T23:08:46.681Z,17.30
2023-01-01T23:11:13.673Z,18.77
2023-01-01T23:13:59.000Z,17.45
2023-01-01T23:16:26.025Z,16.80
2023-01-01T23:18:53.033Z,16.52
2023-01-01T23:21:26.810Z,15.15
2023-01-01T23:23:57.151Z,16.80
2023-01-01T23:26:25.513Z,17.08
2023-01-01T23:28:54.654Z,16.48
2023-01-01T23:31:25.860Z,16.67
2023-01-01T23:33:56.030Z,16.45
2023-01-01T23:36:27.371Z,16.38
2023-01-01T23:38:54.554Z,17.30
2023-01-01T23:41:23.059Z,16.05
2023-01-01T23:43:50.321Z,18.17
2023-01-01T23:46:18.545Z,16.90
2023-01-01T23:48:46.419Z,17.25
2023-01-01T23:51:14.749Z,17.25
2023-01-01T23:53:41.809Z,17.60
2023-01-01T23:56:08.871Z,18.13
2023-01-01T23:58:35.880Z,17.42
